sensor_id;sensor_type;location;lat;lon;timestamp;P1;durP1;ratioP1;P2;durP2;ratioP2
69030;SDS011;56083;48.774;8.942;2023-06-22T00:01:03;15.77;;;10.27;;
69030;SDS011;56083;48.774;8.942;2023-06-22T00:03:29;15.05;;;9.52;;
69030;SDS011;56083;48.774;8.942;2023-06-22T00:05:54;12.82;;;9.90;;
69030;SDS011;56083;48.774;8.942;2023-06-22T00:08:21;18.10;;;10.75;;
69030;SDS011;56083;48.774;8.942;2023-06-22T00:10:46;18.88;;;10.43;;
69030;SDS011;56083;48.774;8.942;2023-06-22T00:13:12;19.95;;;10.43;;
69030;SDS011;56083;48.774;8.942;2023-06-22T00:15:40;14.82;;;10.05;;
69030;SDS011;56083;48.774;8.942;2023-06-22T00:18:07;20.77;;;10.48;;
69030;SDS011;56083;48.774;8.942;2023-06-22T00:20:33;17.15;;;10.85;;
69030;SDS011;56083;48.774;8.942;2023-06-22T00:23:02;14.48;;;10.50;;
69030;SDS011;56083;48.774;8.942;2023-06-22T00:25:35;19.70;;;11.57;;
69030;SDS011;56083;48.774;8.942;2023-06-22T00:28:02;14.68;;;11.23;;
69030;SDS011;56083;48.774;8.942;2023-06-22T00:30:29;14.85;;;10.63;;
69030;SDS011;56083;48.774;8.942;2023-06-22T00:32:55;16.65;;;11.48;;
69030;SDS011;56083;48.774;8.942;2023-06-22T00:35:21;17.98;;;11.88;;
69030;SDS011;56083;48.774;8.942;2023-06-22T00:37:47;15.93;;;12.40;;
69030;SDS011;56083;48.774;8.942;2023-06-22T00:40:13;19.33;;;12.63;;
69030;SDS011;56083;48.774;8.942;2023-06-22T00:42:39;20.67;;;12.30;;
69030;SDS011;56083;48.774;8.942;2023-06-22T00:45:06;15.82;;;11.65;;
69030;SDS011;56083;48.774;8.942;2023-06-22T00:47:34;15.98;;;11.77;;
69030;SDS011;56083;48.774;8.942;2023-06-22T00:50:00;14.02;;;10.95;;
69030;SDS011;56083;48.774;8.942;2023-06-22T00:52:27;19.95;;;13.07;;
69030;SDS011;56083;48.774;8.942;2023-06-22T00:54:56;18.52;;;12.65;;
69030;SDS011;56083;48.774;8.942;2023-06-22T00:57:22;20.55;;;14.05;;
69030;SDS011;56083;48.774;8.942;2023-06-22T00:59:54;21.10;;;13.80;;
69030;SDS011;56083;48.774;8.942;2023-06-22T01:02:20;19.92;;;13.93;;
69030;SDS011;56083;48.774;8.942;2023-06-22T01:04:46;20.65;;;13.15;;
69030;SDS011;56083;48.774;8.942;2023-06-22T01:07:31;20.45;;;13.45;;
69030;SDS011;56083;48.774;8.942;2023-06-22T01:10:20;19.58;;;12.13;;
69030;SDS011;56083;48.774;8.942;2023-06-22T01:12:52;19.13;;;12.75;;
69030;SDS011;56083;48.774;8.942;2023-06-22T01:15:27;18.33;;;12.13;;
69030;SDS011;56083;48.774;8.942;2023-06-22T01:17:56;23.85;;;13.38;;
69030;SDS011;56083;48.774;8.942;2023-06-22T01:20:23;23.15;;;13.20;;
69030;SDS011;56083;48.774;8.942;2023-06-22T01:25:21;28.00;;;13.10;;
69030;SDS011;56083;48.774;8.942;2023-06-22T01:27:56;22.00;;;13.52;;
69030;SDS011;56083;48.774;8.942;2023-06-22T01:30:30;30.67;;;13.30;;
69030;SDS011;56083;48.774;8.942;2023-06-22T01:32:59;18.58;;;11.68;;
69030;SDS011;56083;48.774;8.942;2023-06-22T01:35:28;21.67;;;12.85;;
69030;SDS011;56083;48.774;8.942;2023-06-22T01:37:54;26.60;;;13.13;;
69030;SDS011;56083;48.774;8.942;2023-06-22T01:40:20;24.67;;;13.50;;
69030;SDS011;56083;48.774;8.942;2023-06-22T01:42:47;26.90;;;13.25;;
69030;SDS011;56083;48.774;8.942;2023-06-22T01:45:15;19.67;;;12.90;;
69030;SDS011;56083;48.774;8.942;2023-06-22T01:47:41;19.63;;;12.73;;
69030;SDS011;56083;48.774;8.942;2023-06-22T01:50:07;19.25;;;12.50;;
69030;SDS011;56083;48.774;8.942;2023-06-22T01:52:33;23.52;;;12.90;;
69030;SDS011;56083;48.774;8.942;2023-06-22T01:54:59;19.05;;;12.80;;
69030;SDS011;56083;48.774;8.942;2023-06-22T01:57:26;16.30;;;12.27;;
69030;SDS011;56083;48.774;8.942;2023-06-22T02:00:03;20.48;;;13.23;;
69030;SDS011;56083;48.774;8.942;2023-06-22T02:02:33;23.50;;;13.27;;
69030;SDS011;56083;48.774;8.942;2023-06-22T02:05:07;20.90;;;12.20;;
69030;SDS011;56083;48.774;8.942;2023-06-22T02:07:42;19.30;;;12.70;;
69030;SDS011;56083;48.774;8.942;2023-06-22T02:10:11;18.88;;;11.98;;
69030;SDS011;56083;48.774;8.942;2023-06-22T02:12:40;19.70;;;13.15;;
69030;SDS011;56083;48.774;8.942;2023-06-22T02:15:09;20.48;;;13.73;;
69030;SDS011;56083;48.774;8.942;2023-06-22T02:17:37;24.45;;;13.68;;
69030;SDS011;56083;48.774;8.942;2023-06-22T02:20:03;24.67;;;14.30;;
69030;SDS011;56083;48.774;8.942;2023-06-22T02:22:32;22.42;;;13.65;;
69030;SDS011;56083;48.774;8.942;2023-06-22T02:24:59;21.55;;;14.23;;
69030;SDS011;56083;48.774;8.942;2023-06-22T02:27:25;21.80;;;13.23;;
69030;SDS011;56083;48.774;8.942;2023-06-22T02:29:51;22.95;;;13.68;;
69030;SDS011;56083;48.774;8.942;2023-06-22T02:32:16;25.45;;;13.50;;
69030;SDS011;56083;48.774;8.942;2023-06-22T02:34:42;25.58;;;13.82;;
69030;SDS011;56083;48.774;8.942;2023-06-22T02:37:12;21.83;;;13.40;;
69030;SDS011;56083;48.774;8.942;2023-06-22T02:39:39;20.35;;;13.30;;
69030;SDS011;56083;48.774;8.942;2023-06-22T02:42:06;20.40;;;12.93;;
69030;SDS011;56083;48.774;8.942;2023-06-22T02:44:32;19.20;;;13.75;;
69030;SDS011;56083;48.774;8.942;2023-06-22T02:46:58;21.52;;;13.52;;
69030;SDS011;56083;48.774;8.942;2023-06-22T02:49:23;17.65;;;13.30;;
69030;SDS011;56083;48.774;8.942;2023-06-22T02:51:49;20.73;;;13.23;;
69030;SDS011;56083;48.774;8.942;2023-06-22T02:54:15;17.70;;;13.50;;
69030;SDS011;56083;48.774;8.942;2023-06-22T02:56:41;18.67;;;13.75;;
69030;SDS011;56083;48.774;8.942;2023-06-22T02:59:10;27.30;;;13.73;;
69030;SDS011;56083;48.774;8.942;2023-06-22T03:01:36;20.05;;;14.00;;
69030;SDS011;56083;48.774;8.942;2023-06-22T03:04:06;24.33;;;13.63;;
69030;SDS011;56083;48.774;8.942;2023-06-22T03:06:32;20.02;;;13.32;;
69030;SDS011;56083;48.774;8.942;2023-06-22T03:09:04;21.15;;;14.90;;
69030;SDS011;56083;48.774;8.942;2023-06-22T03:11:30;21.80;;;15.68;;
69030;SDS011;56083;48.774;8.942;2023-06-22T03:13:59;25.67;;;15.82;;
69030;SDS011;56083;48.774;8.942;2023-06-22T03:16:26;28.60;;;16.83;;
69030;SDS011;56083;48.774;8.942;2023-06-22T03:18:52;22.08;;;15.35;;
69030;SDS011;56083;48.774;8.942;2023-06-22T03:21:22;22.00;;;15.25;;
69030;SDS011;56083;48.774;8.942;2023-06-22T03:23:48;24.05;;;15.95;;
69030;SDS011;56083;48.774;8.942;2023-06-22T03:26:16;25.17;;;16.17;;
69030;SDS011;56083;48.774;8.942;2023-06-22T03:28:42;29.95;;;17.10;;
69030;SDS011;56083;48.774;8.942;2023-06-22T03:31:08;25.63;;;16.77;;
69030;SDS011;56083;48.774;8.942;2023-06-22T03:33:34;24.20;;;16.10;;
69030;SDS011;56083;48.774;8.942;2023-06-22T03:36:00;18.80;;;14.55;;
69030;SDS011;56083;48.774;8.942;2023-06-22T03:38:26;26.92;;;15.98;;
69030;SDS011;56083;48.774;8.942;2023-06-22T03:40:51;21.05;;;16.02;;
69030;SDS011;56083;48.774;8.942;2023-06-22T03:43:17;23.58;;;15.77;;
69030;SDS011;56083;48.774;8.942;2023-06-22T03:45:43;24.33;;;15.18;;
69030;SDS011;56083;48.774;8.942;2023-06-22T03:48:10;19.70;;;14.25;;
69030;SDS011;56083;48.774;8.942;2023-06-22T03:50:36;22.73;;;14.48;;
69030;SDS011;56083;48.774;8.942;2023-06-22T03:53:02;22.75;;;14.38;;
69030;SDS011;56083;48.774;8.942;2023-06-22T03:55:28;21.75;;;12.30;;
69030;SDS011;56083;48.774;8.942;2023-06-22T03:57:53;18.75;;;13.15;;
69030;SDS011;56083;48.774;8.942;2023-06-22T04:00:21;21.95;;;13.18;;
69030;SDS011;56083;48.774;8.942;2023-06-22T04:02:48;22.77;;;13.27;;
69030;SDS011;56083;48.774;8.942;2023-06-22T04:05:13;21.90;;;13.13;;
69030;SDS011;56083;48.774;8.942;2023-06-22T04:07:39;19.15;;;14.10;;
69030;SDS011;56083;48.774;8.942;2023-06-22T04:10:05;23.75;;;13.60;;
69030;SDS011;56083;48.774;8.942;2023-06-22T04:12:31;18.45;;;13.43;;
69030;SDS011;56083;48.774;8.942;2023-06-22T04:14:57;21.77;;;13.57;;
69030;SDS011;56083;48.774;8.942;2023-06-22T04:17:22;19.70;;;13.40;;
69030;SDS011;56083;48.774;8.942;2023-06-22T04:19:50;16.90;;;12.90;;
69030;SDS011;56083;48.774;8.942;2023-06-22T04:22:16;26.38;;;13.75;;
69030;SDS011;56083;48.774;8.942;2023-06-22T04:24:41;22.70;;;12.55;;
69030;SDS011;56083;48.774;8.942;2023-06-22T04:27:07;17.42;;;11.73;;
69030;SDS011;56083;48.774;8.942;2023-06-22T04:29:32;19.60;;;12.05;;
69030;SDS011;56083;48.774;8.942;2023-06-22T04:31:58;16.20;;;13.00;;
69030;SDS011;56083;48.774;8.942;2023-06-22T04:34:27;24.25;;;12.60;;
69030;SDS011;56083;48.774;8.942;2023-06-22T04:36:54;23.88;;;12.10;;
69030;SDS011;56083;48.774;8.942;2023-06-22T04:39:20;20.50;;;11.75;;
69030;SDS011;56083;48.774;8.942;2023-06-22T04:41:46;27.10;;;12.43;;
69030;SDS011;56083;48.774;8.942;2023-06-22T04:44:15;21.92;;;13.38;;
69030;SDS011;56083;48.774;8.942;2023-06-22T04:46:50;20.67;;;14.73;;
69030;SDS011;56083;48.774;8.942;2023-06-22T04:49:24;22.40;;;14.48;;
69030;SDS011;56083;48.774;8.942;2023-06-22T04:51:58;29.25;;;16.13;;
69030;SDS011;56083;48.774;8.942;2023-06-22T04:54:25;21.58;;;14.80;;
69030;SDS011;56083;48.774;8.942;2023-06-22T04:56:51;24.80;;;14.40;;
69030;SDS011;56083;48.774;8.942;2023-06-22T04:59:26;20.45;;;13.18;;
69030;SDS011;56083;48.774;8.942;2023-06-22T05:01:59;20.42;;;13.60;;
69030;SDS011;56083;48.774;8.942;2023-06-22T05:04:27;24.38;;;13.93;;
69030;SDS011;56083;48.774;8.942;2023-06-22T05:06:56;21.60;;;14.25;;
69030;SDS011;56083;48.774;8.942;2023-06-22T05:09:22;16.88;;;12.63;;
69030;SDS011;56083;48.774;8.942;2023-06-22T05:11:48;17.65;;;12.13;;
69030;SDS011;56083;48.774;8.942;2023-06-22T05:14:14;18.60;;;13.18;;
69030;SDS011;56083;48.774;8.942;2023-06-22T05:16:41;18.85;;;13.13;;
69030;SDS011;56083;48.774;8.942;2023-06-22T05:19:07;19.45;;;11.40;;
69030;SDS011;56083;48.774;8.942;2023-06-22T05:21:33;17.73;;;12.70;;
69030;SDS011;56083;48.774;8.942;2023-06-22T05:23:59;18.42;;;12.68;;
69030;SDS011;56083;48.774;8.942;2023-06-22T05:26:27;16.63;;;12.63;;
69030;SDS011;56083;48.774;8.942;2023-06-22T05:28:53;16.98;;;11.07;;
69030;SDS011;56083;48.774;8.942;2023-06-22T05:31:19;14.07;;;10.63;;
69030;SDS011;56083;48.774;8.942;2023-06-22T05:33:45;16.83;;;11.20;;
69030;SDS011;56083;48.774;8.942;2023-06-22T05:36:12;19.80;;;11.40;;
69030;SDS011;56083;48.774;8.942;2023-06-22T05:38:39;15.52;;;10.45;;
69030;SDS011;56083;48.774;8.942;2023-06-22T05:41:05;17.48;;;11.82;;
69030;SDS011;56083;48.774;8.942;2023-06-22T05:43:31;16.05;;;11.65;;
69030;SDS011;56083;48.774;8.942;2023-06-22T05:45:57;18.40;;;10.18;;
69030;SDS011;56083;48.774;8.942;2023-06-22T05:48:25;20.02;;;11.75;;
69030;SDS011;56083;48.774;8.942;2023-06-22T05:50:53;13.27;;;9.55;;
69030;SDS011;56083;48.774;8.942;2023-06-22T05:53:19;21.02;;;11.35;;
69030;SDS011;56083;48.774;8.942;2023-06-22T05:55:45;17.33;;;11.23;;
69030;SDS011;56083;48.774;8.942;2023-06-22T05:58:11;18.17;;;11.70;;
69030;SDS011;56083;48.774;8.942;2023-06-22T06:00:38;17.70;;;10.82;;
69030;SDS011;56083;48.774;8.942;2023-06-22T06:03:06;22.58;;;11.63;;
69030;SDS011;56083;48.774;8.942;2023-06-22T06:05:32;21.52;;;11.57;;
69030;SDS011;56083;48.774;8.942;2023-06-22T06:08:02;26.17;;;11.57;;
69030;SDS011;56083;48.774;8.942;2023-06-22T06:10:30;23.58;;;11.52;;
69030;SDS011;56083;48.774;8.942;2023-06-22T06:12:58;12.88;;;8.50;;
69030;SDS011;56083;48.774;8.942;2023-06-22T06:15:27;19.38;;;9.57;;
69030;SDS011;56083;48.774;8.942;2023-06-22T06:17:53;21.48;;;10.52;;
69030;SDS011;56083;48.774;8.942;2023-06-22T06:20:19;17.17;;;9.45;;
69030;SDS011;56083;48.774;8.942;2023-06-22T06:22:47;12.20;;;8.10;;
69030;SDS011;56083;48.774;8.942;2023-06-22T06:25:13;16.02;;;9.43;;
69030;SDS011;56083;48.774;8.942;2023-06-22T06:27:42;20.38;;;9.23;;
69030;SDS011;56083;48.774;8.942;2023-06-22T06:30:08;15.18;;;8.80;;
69030;SDS011;56083;48.774;8.942;2023-06-22T06:32:37;18.50;;;8.98;;
69030;SDS011;56083;48.774;8.942;2023-06-22T06:35:06;13.38;;;8.40;;
69030;SDS011;56083;48.774;8.942;2023-06-22T06:37:35;11.70;;;6.93;;
69030;SDS011;56083;48.774;8.942;2023-06-22T06:40:02;22.27;;;9.02;;
69030;SDS011;56083;48.774;8.942;2023-06-22T06:42:36;10.57;;;5.53;;
69030;SDS011;56083;48.774;8.942;2023-06-22T06:45:17;10.35;;;5.43;;
69030;SDS011;56083;48.774;8.942;2023-06-22T06:47:44;11.63;;;5.32;;
69030;SDS011;56083;48.774;8.942;2023-06-22T06:50:13;14.68;;;5.70;;
69030;SDS011;56083;48.774;8.942;2023-06-22T06:52:40;12.38;;;5.45;;
69030;SDS011;56083;48.774;8.942;2023-06-22T06:55:07;10.55;;;5.75;;
69030;SDS011;56083;48.774;8.942;2023-06-22T06:57:36;11.63;;;6.15;;
69030;SDS011;56083;48.774;8.942;2023-06-22T07:00:03;13.15;;;5.53;;
69030;SDS011;56083;48.774;8.942;2023-06-22T07:02:35;12.25;;;5.70;;
69030;SDS011;56083;48.774;8.942;2023-06-22T07:05:01;11.93;;;5.45;;
69030;SDS011;56083;48.774;8.942;2023-06-22T07:07:29;16.77;;;5.57;;
69030;SDS011;56083;48.774;8.942;2023-06-22T07:09:55;12.55;;;5.60;;
69030;SDS011;56083;48.774;8.942;2023-06-22T07:12:20;13.43;;;5.63;;
69030;SDS011;56083;48.774;8.942;2023-06-22T07:14:46;11.25;;;5.38;;
69030;SDS011;56083;48.774;8.942;2023-06-22T07:17:12;15.73;;;5.78;;
69030;SDS011;56083;48.774;8.942;2023-06-22T07:19:38;13.85;;;5.50;;
69030;SDS011;56083;48.774;8.942;2023-06-22T07:22:04;12.13;;;5.25;;
69030;SDS011;56083;48.774;8.942;2023-06-22T07:24:29;11.82;;;5.30;;
69030;SDS011;56083;48.774;8.942;2023-06-22T07:26:56;15.27;;;5.25;;
69030;SDS011;56083;48.774;8.942;2023-06-22T07:29:22;10.93;;;4.95;;
69030;SDS011;56083;48.774;8.942;2023-06-22T07:31:49;13.27;;;4.80;;
69030;SDS011;56083;48.774;8.942;2023-06-22T07:34:16;11.90;;;4.95;;
69030;SDS011;56083;48.774;8.942;2023-06-22T07:36:42;12.77;;;5.28;;
69030;SDS011;56083;48.774;8.942;2023-06-22T07:39:09;13.57;;;5.57;;
69030;SDS011;56083;48.774;8.942;2023-06-22T07:41:35;12.60;;;5.03;;
69030;SDS011;56083;48.774;8.942;2023-06-22T07:44:01;10.60;;;4.97;;
69030;SDS011;56083;48.774;8.942;2023-06-22T07:46:28;11.77;;;4.80;;
69030;SDS011;56083;48.774;8.942;2023-06-22T07:48:55;9.35;;;5.22;;
69030;SDS011;56083;48.774;8.942;2023-06-22T07:51:22;14.25;;;5.05;;
69030;SDS011;56083;48.774;8.942;2023-06-22T07:53:48;14.60;;;5.35;;
69030;SDS011;56083;48.774;8.942;2023-06-22T07:56:14;9.05;;;4.53;;
69030;SDS011;56083;48.774;8.942;2023-06-22T07:58:44;9.00;;;4.95;;
69030;SDS011;56083;48.774;8.942;2023-06-22T08:01:11;11.50;;;5.07;;
69030;SDS011;56083;48.774;8.942;2023-06-22T08:03:36;11.05;;;5.20;;
69030;SDS011;56083;48.774;8.942;2023-06-22T08:06:02;15.13;;;5.15;;
69030;SDS011;56083;48.774;8.942;2023-06-22T08:08:28;13.30;;;4.72;;
69030;SDS011;56083;48.774;8.942;2023-06-22T08:10:54;12.40;;;4.90;;
69030;SDS011;56083;48.774;8.942;2023-06-22T08:13:19;9.98;;;4.78;;
69030;SDS011;56083;48.774;8.942;2023-06-22T08:15:45;14.43;;;5.30;;
69030;SDS011;56083;48.774;8.942;2023-06-22T08:18:11;10.63;;;4.53;;
69030;SDS011;56083;48.774;8.942;2023-06-22T08:20:37;13.20;;;5.30;;
69030;SDS011;56083;48.774;8.942;2023-06-22T08:23:02;17.00;;;5.32;;
69030;SDS011;56083;48.774;8.942;2023-06-22T08:25:34;20.52;;;4.85;;
69030;SDS011;56083;48.774;8.942;2023-06-22T08:28:00;16.63;;;5.40;;
69030;SDS011;56083;48.774;8.942;2023-06-22T08:30:27;19.55;;;5.68;;
69030;SDS011;56083;48.774;8.942;2023-06-22T08:32:53;16.70;;;5.53;;
69030;SDS011;56083;48.774;8.942;2023-06-22T08:35:22;16.58;;;5.68;;
69030;SDS011;56083;48.774;8.942;2023-06-22T08:37:48;14.30;;;5.10;;
69030;SDS011;56083;48.774;8.942;2023-06-22T08:40:17;18.40;;;5.57;;
69030;SDS011;56083;48.774;8.942;2023-06-22T08:42:45;20.10;;;5.57;;
69030;SDS011;56083;48.774;8.942;2023-06-22T08:45:11;17.83;;;6.30;;
69030;SDS011;56083;48.774;8.942;2023-06-22T08:47:38;17.98;;;5.50;;
69030;SDS011;56083;48.774;8.942;2023-06-22T08:50:04;15.85;;;5.68;;
69030;SDS011;56083;48.774;8.942;2023-06-22T08:52:31;15.75;;;5.43;;
69030;SDS011;56083;48.774;8.942;2023-06-22T08:54:57;13.55;;;5.60;;
69030;SDS011;56083;48.774;8.942;2023-06-22T08:57:25;16.17;;;5.88;;
69030;SDS011;56083;48.774;8.942;2023-06-22T08:59:55;11.05;;;5.38;;
69030;SDS011;56083;48.774;8.942;2023-06-22T09:02:23;14.88;;;5.40;;
69030;SDS011;56083;48.774;8.942;2023-06-22T09:04:49;15.57;;;5.40;;
69030;SDS011;56083;48.774;8.942;2023-06-22T09:07:21;14.15;;;5.30;;
69030;SDS011;56083;48.774;8.942;2023-06-22T09:09:48;16.27;;;5.70;;
69030;SDS011;56083;48.774;8.942;2023-06-22T09:12:14;14.70;;;5.18;;
69030;SDS011;56083;48.774;8.942;2023-06-22T09:14:40;13.18;;;5.10;;
69030;SDS011;56083;48.774;8.942;2023-06-22T09:17:05;14.20;;;5.80;;
69030;SDS011;56083;48.774;8.942;2023-06-22T09:19:31;14.02;;;5.07;;
69030;SDS011;56083;48.774;8.942;2023-06-22T09:21:57;14.50;;;5.53;;
69030;SDS011;56083;48.774;8.942;2023-06-22T09:24:22;13.18;;;5.10;;
69030;SDS011;56083;48.774;8.942;2023-06-22T09:26:48;11.77;;;5.25;;
69030;SDS011;56083;48.774;8.942;2023-06-22T09:29:14;16.17;;;4.75;;
69030;SDS011;56083;48.774;8.942;2023-06-22T09:31:39;14.13;;;4.97;;
69030;SDS011;56083;48.774;8.942;2023-06-22T09:34:05;18.92;;;5.20;;
69030;SDS011;56083;48.774;8.942;2023-06-22T09:36:32;19.67;;;5.63;;
69030;SDS011;56083;48.774;8.942;2023-06-22T09:38:58;18.17;;;5.95;;
69030;SDS011;56083;48.774;8.942;2023-06-22T09:41:24;16.17;;;4.97;;
69030;SDS011;56083;48.774;8.942;2023-06-22T09:43:50;15.70;;;5.45;;
69030;SDS011;56083;48.774;8.942;2023-06-22T09:46:16;24.27;;;5.38;;
69030;SDS011;56083;48.774;8.942;2023-06-22T09:48:42;12.68;;;5.60;;
69030;SDS011;56083;48.774;8.942;2023-06-22T09:51:07;19.75;;;5.45;;
69030;SDS011;56083;48.774;8.942;2023-06-22T09:53:33;16.98;;;4.97;;
69030;SDS011;56083;48.774;8.942;2023-06-22T09:55:59;16.40;;;5.35;;
69030;SDS011;56083;48.774;8.942;2023-06-22T09:58:26;15.25;;;5.25;;
69030;SDS011;56083;48.774;8.942;2023-06-22T10:00:52;15.80;;;5.05;;
69030;SDS011;56083;48.774;8.942;2023-06-22T10:03:19;16.75;;;5.50;;
69030;SDS011;56083;48.774;8.942;2023-06-22T10:05:45;15.30;;;6.25;;
69030;SDS011;56083;48.774;8.942;2023-06-22T10:08:10;20.25;;;5.60;;
69030;SDS011;56083;48.774;8.942;2023-06-22T10:10:38;16.70;;;5.75;;
69030;SDS011;56083;48.774;8.942;2023-06-22T10:13:10;17.48;;;5.60;;
69030;SDS011;56083;48.774;8.942;2023-06-22T10:15:39;16.27;;;5.18;;
69030;SDS011;56083;48.774;8.942;2023-06-22T10:18:05;15.55;;;5.13;;
69030;SDS011;56083;48.774;8.942;2023-06-22T10:20:31;16.02;;;5.68;;
69030;SDS011;56083;48.774;8.942;2023-06-22T10:22:56;15.57;;;5.10;;
69030;SDS011;56083;48.774;8.942;2023-06-22T10:25:22;15.35;;;5.13;;
69030;SDS011;56083;48.774;8.942;2023-06-22T10:27:48;16.80;;;5.32;;
69030;SDS011;56083;48.774;8.942;2023-06-22T10:30:13;15.27;;;5.63;;
69030;SDS011;56083;48.774;8.942;2023-06-22T10:32:40;19.10;;;5.45;;
69030;SDS011;56083;48.774;8.942;2023-06-22T10:35:07;15.63;;;4.85;;
69030;SDS011;56083;48.774;8.942;2023-06-22T10:37:35;16.52;;;5.38;;
69030;SDS011;56083;48.774;8.942;2023-06-22T10:40:02;18.08;;;5.07;;
69030;SDS011;56083;48.774;8.942;2023-06-22T10:42:29;22.70;;;5.10;;
69030;SDS011;56083;48.774;8.942;2023-06-22T10:44:54;15.55;;;4.80;;
69030;SDS011;56083;48.774;8.942;2023-06-22T10:47:20;15.35;;;5.78;;
69030;SDS011;56083;48.774;8.942;2023-06-22T10:49:45;14.35;;;5.88;;
69030;SDS011;56083;48.774;8.942;2023-06-22T10:52:11;11.30;;;5.45;;
69030;SDS011;56083;48.774;8.942;2023-06-22T10:54:37;13.35;;;5.72;;
69030;SDS011;56083;48.774;8.942;2023-06-22T10:57:03;15.10;;;5.45;;
69030;SDS011;56083;48.774;8.942;2023-06-22T10:59:30;20.25;;;5.63;;
69030;SDS011;56083;48.774;8.942;2023-06-22T11:01:56;15.27;;;5.55;;
69030;SDS011;56083;48.774;8.942;2023-06-22T11:04:22;22.48;;;5.50;;
69030;SDS011;56083;48.774;8.942;2023-06-22T11:06:48;16.35;;;5.30;;
69030;SDS011;56083;48.774;8.942;2023-06-22T11:09:14;15.57;;;5.47;;
69030;SDS011;56083;48.774;8.942;2023-06-22T11:11:45;13.15;;;5.50;;
69030;SDS011;56083;48.774;8.942;2023-06-22T11:14:15;15.70;;;5.90;;
69030;SDS011;56083;48.774;8.942;2023-06-22T11:16:41;20.20;;;5.30;;
69030;SDS011;56083;48.774;8.942;2023-06-22T11:19:07;12.40;;;5.13;;
69030;SDS011;56083;48.774;8.942;2023-06-22T11:21:33;17.50;;;6.30;;
69030;SDS011;56083;48.774;8.942;2023-06-22T11:23:58;14.40;;;5.60;;
69030;SDS011;56083;48.774;8.942;2023-06-22T11:26:24;13.40;;;5.65;;
69030;SDS011;56083;48.774;8.942;2023-06-22T11:28:52;17.63;;;5.60;;
69030;SDS011;56083;48.774;8.942;2023-06-22T11:31:18;17.88;;;5.85;;
69030;SDS011;56083;48.774;8.942;2023-06-22T11:33:44;13.32;;;5.13;;
69030;SDS011;56083;48.774;8.942;2023-06-22T11:36:11;13.90;;;5.13;;
69030;SDS011;56083;48.774;8.942;2023-06-22T11:38:37;22.20;;;6.38;;
69030;SDS011;56083;48.774;8.942;2023-06-22T11:41:05;20.13;;;5.68;;
69030;SDS011;56083;48.774;8.942;2023-06-22T11:43:34;14.85;;;5.55;;
69030;SDS011;56083;48.774;8.942;2023-06-22T11:46:03;16.75;;;6.43;;
69030;SDS011;56083;48.774;8.942;2023-06-22T11:48:29;20.63;;;5.97;;
69030;SDS011;56083;48.774;8.942;2023-06-22T11:50:55;22.30;;;6.65;;
69030;SDS011;56083;48.774;8.942;2023-06-22T11:53:21;16.85;;;5.90;;
69030;SDS011;56083;48.774;8.942;2023-06-22T11:55:49;18.35;;;6.05;;
69030;SDS011;56083;48.774;8.942;2023-06-22T11:58:15;18.67;;;6.57;;
69030;SDS011;56083;48.774;8.942;2023-06-22T12:00:40;19.05;;;6.32;;
69030;SDS011;56083;48.774;8.942;2023-06-22T12:03:06;28.13;;;6.30;;
69030;SDS011;56083;48.774;8.942;2023-06-22T12:05:32;17.75;;;6.32;;
69030;SDS011;56083;48.774;8.942;2023-06-22T12:07:58;16.83;;;5.95;;
69030;SDS011;56083;48.774;8.942;2023-06-22T12:10:25;13.95;;;5.57;;
69030;SDS011;56083;48.774;8.942;2023-06-22T12:12:51;14.05;;;5.88;;
69030;SDS011;56083;48.774;8.942;2023-06-22T12:15:16;17.83;;;6.00;;
69030;SDS011;56083;48.774;8.942;2023-06-22T12:17:42;22.08;;;5.75;;
69030;SDS011;56083;48.774;8.942;2023-06-22T12:20:08;24.45;;;6.15;;
69030;SDS011;56083;48.774;8.942;2023-06-22T12:22:34;18.02;;;5.78;;
69030;SDS011;56083;48.774;8.942;2023-06-22T12:25:00;15.00;;;5.72;;
69030;SDS011;56083;48.774;8.942;2023-06-22T12:27:26;28.52;;;6.65;;
69030;SDS011;56083;48.774;8.942;2023-06-22T12:29:52;16.42;;;5.88;;
69030;SDS011;56083;48.774;8.942;2023-06-22T12:32:17;17.42;;;6.10;;
69030;SDS011;56083;48.774;8.942;2023-06-22T12:34:44;17.30;;;5.82;;
69030;SDS011;56083;48.774;8.942;2023-06-22T12:37:10;18.88;;;6.32;;
69030;SDS011;56083;48.774;8.942;2023-06-22T12:39:35;18.33;;;6.55;;
69030;SDS011;56083;48.774;8.942;2023-06-22T12:42:01;22.15;;;6.32;;
69030;SDS011;56083;48.774;8.942;2023-06-22T12:44:27;22.00;;;6.20;;
69030;SDS011;56083;48.774;8.942;2023-06-22T12:46:52;24.40;;;6.55;;
69030;SDS011;56083;48.774;8.942;2023-06-22T12:49:18;25.05;;;6.57;;
69030;SDS011;56083;48.774;8.942;2023-06-22T12:51:44;23.48;;;6.40;;
69030;SDS011;56083;48.774;8.942;2023-06-22T12:54:10;28.55;;;6.22;;
69030;SDS011;56083;48.774;8.942;2023-06-22T12:56:37;23.80;;;6.28;;
69030;SDS011;56083;48.774;8.942;2023-06-22T12:59:03;24.50;;;6.25;;
69030;SDS011;56083;48.774;8.942;2023-06-22T13:01:32;26.70;;;6.20;;
69030;SDS011;56083;48.774;8.942;2023-06-22T13:04:00;20.33;;;6.15;;
69030;SDS011;56083;48.774;8.942;2023-06-22T13:06:26;17.25;;;6.05;;
69030;SDS011;56083;48.774;8.942;2023-06-22T13:08:52;24.52;;;6.47;;
69030;SDS011;56083;48.774;8.942;2023-06-22T13:11:18;23.45;;;6.55;;
69030;SDS011;56083;48.774;8.942;2023-06-22T13:13:44;23.00;;;6.80;;
69030;SDS011;56083;48.774;8.942;2023-06-22T13:16:10;17.05;;;6.50;;
69030;SDS011;56083;48.774;8.942;2023-06-22T13:18:35;20.35;;;6.53;;
69030;SDS011;56083;48.774;8.942;2023-06-22T13:21:02;18.33;;;6.65;;
69030;SDS011;56083;48.774;8.942;2023-06-22T13:23:28;25.30;;;6.95;;
69030;SDS011;56083;48.774;8.942;2023-06-22T13:25:53;15.85;;;6.60;;
69030;SDS011;56083;48.774;8.942;2023-06-22T13:28:19;22.02;;;6.47;;
69030;SDS011;56083;48.774;8.942;2023-06-22T13:30:45;24.42;;;6.53;;
69030;SDS011;56083;48.774;8.942;2023-06-22T13:33:12;28.08;;;6.35;;
69030;SDS011;56083;48.774;8.942;2023-06-22T13:35:39;23.38;;;6.50;;
69030;SDS011;56083;48.774;8.942;2023-06-22T13:38:07;18.17;;;5.85;;
69030;SDS011;56083;48.774;8.942;2023-06-22T13:40:33;23.75;;;6.28;;
69030;SDS011;56083;48.774;8.942;2023-06-22T13:42:59;18.75;;;5.97;;
69030;SDS011;56083;48.774;8.942;2023-06-22T13:45:25;21.65;;;5.57;;
69030;SDS011;56083;48.774;8.942;2023-06-22T13:47:51;29.13;;;5.75;;
69030;SDS011;56083;48.774;8.942;2023-06-22T13:50:17;20.40;;;5.95;;
69030;SDS011;56083;48.774;8.942;2023-06-22T13:52:43;19.45;;;5.53;;
69030;SDS011;56083;48.774;8.942;2023-06-22T13:55:08;19.48;;;5.80;;
69030;SDS011;56083;48.774;8.942;2023-06-22T13:57:35;20.30;;;5.22;;
69030;SDS011;56083;48.774;8.942;2023-06-22T14:00:01;23.67;;;6.00;;
69030;SDS011;56083;48.774;8.942;2023-06-22T14:02:29;24.33;;;5.72;;
69030;SDS011;56083;48.774;8.942;2023-06-22T14:04:54;16.15;;;5.53;;
69030;SDS011;56083;48.774;8.942;2023-06-22T14:07:20;26.40;;;6.07;;
69030;SDS011;56083;48.774;8.942;2023-06-22T14:09:46;19.30;;;5.95;;
69030;SDS011;56083;48.774;8.942;2023-06-22T14:12:12;19.80;;;5.60;;
69030;SDS011;56083;48.774;8.942;2023-06-22T14:14:38;23.10;;;6.00;;
69030;SDS011;56083;48.774;8.942;2023-06-22T14:17:04;19.80;;;5.80;;
69030;SDS011;56083;48.774;8.942;2023-06-22T14:19:30;18.52;;;5.07;;
69030;SDS011;56083;48.774;8.942;2023-06-22T14:21:56;21.52;;;5.40;;
69030;SDS011;56083;48.774;8.942;2023-06-22T14:24:22;21.27;;;5.68;;
69030;SDS011;56083;48.774;8.942;2023-06-22T14:26:48;17.38;;;4.28;;
69030;SDS011;56083;48.774;8.942;2023-06-22T14:29:14;30.35;;;4.53;;